Kuwait, Kuwait

11:51 AM AST on April 18, 2015 (GMT +0300)
Kuwait International | | Change Station
CLOSE
Current Station
Airport
Location: Kuwait,
Elevation: 180 ft
Nearby Weather Stations

Elev 180 ft 29.22 °N, 47.98 °E | Updated 51 minutes ago

Clear
Clear
84 °F
Feels Like 84 °F
N
22
Wind Variable Wind from North

Today
High -- | Low -- °F
--% Chance of Precip.
Yesterday
High -- | Low -- °F
Precip. -- in
5:19 AM 6:16 PM
Waning Crescent, 0% visible
Pressure 29.98 in
Visibility 4.3 miles
Clouds
Dew Point 32 °F
Humidity 15%
Rainfall 0.00 in
Snow Depth Not available.
UV Not available.
Pollen Not available.
Air Quality Not available.
Flu Activity Not available.
METAR OKBK 180800Z 35019KT 7000 -BLDU NSC 29/M00 Q1015 NOSIG

More Conditions Fewer Conditions

Pressure 29.98 in
Visibility 4.3 miles
Clouds
Dew Point 32 °F
Humidity 15%
Rainfall 0.00 in
Snow Depth Not available.
UV Not available.
Pollen Not available.
Air Quality Not available.
Flu Activity Not available.
METAR OKBK 180800Z 35019KT 7000 -BLDU NSC 29/M00 Q1015 NOSIG

More Conditions Fewer Conditions

10-Day Weather Forecast

Almanac

Astronomy

Apr. 18, 2015 Rise Set
Actual Time
Civil Twilight
Nautical Twilight
Astronomical Twilight
Moon
Length of Visible Light
Length of Day
Tomorrow will be .
, % of the Moon is Illuminated

Today's Extremes

Country Highs Country Lows

Community

WunderPhotos

Upload Photos

1,814,345 photos uploaded!

WunderBlogs® & News

Nearby

Air Quality

  Air Quality AQ Index Pollutant
Not available.

Snow Depth

Station Depth Elevation

Earthquake Activity

City Distance Mag. Time & Date
Minimum magnitude displayed is 2.5.

Coastal Water Temperatures

Place Temperature

Stations

Nearby Weather Stations

Station Location Temp. Windchill Dew Point Humidity Wind Precip. Elev Updated Type